Terminal Aerodrome Forecast
Issued by NWS

Home | Current Version | Previous Version | Text Only | Print | Product List | Glossary On
Versions: 1 2 3 4 5 6 7 8 9 10 11 12 13
000
FTAK31 PANC 241741
TAFAHO
TAF
PAHO 241741Z 2418/2518 VRB03KT P6SM SKC
     FM242200 23007KT P6SM VCSH BKN040
     FM250200 VRB03KT P6SM -SHRA BKN040=

USA.gov is the U.S. government's official web portal to all federal, state and local government web resources and services.